createdAt,value
2022-09-16T00:00:30.353Z,3.63
2022-09-16T00:02:58.310Z,3.50
2022-09-16T00:05:25.486Z,3.25
2022-09-16T00:07:52.723Z,2.83
2022-09-16T00:10:19.405Z,3.33
2022-09-16T00:12:46.183Z,3.50
2022-09-16T00:15:12.926Z,3.50
2022-09-16T00:17:39.747Z,3.65
2022-09-16T00:20:09.489Z,3.00
2022-09-16T00:22:36.226Z,3.08
2022-09-16T00:25:03.050Z,3.72
2022-09-16T00:27:29.650Z,3.42
2022-09-16T00:29:56.268Z,3.65
2022-09-16T00:32:25.006Z,3.42
2022-09-16T00:34:51.961Z,3.22
2022-09-16T00:37:18.846Z,2.97
2022-09-16T00:39:48.429Z,3.28
2022-09-16T00:42:15.551Z,2.60
2022-09-16T00:45:12.695Z,2.92
2022-09-16T00:47:47.359Z,3.10
2022-09-16T00:50:25.468Z,2.72
2022-09-16T00:52:53.906Z,3.10
2022-09-16T00:55:27.038Z,2.97
2022-09-16T00:57:57.570Z,3.22
2022-09-16T01:00:24.182Z,3.03
2022-09-16T01:02:51.926Z,2.63
2022-09-16T01:05:22.068Z,2.53
2022-09-16T01:07:51.418Z,2.97
2022-09-16T01:10:21.744Z,3.17
2022-09-16T01:12:57.804Z,2.60
2022-09-16T01:15:30.971Z,3.17
2022-09-16T01:18:31.270Z,2.47
2022-09-16T01:21:15.717Z,3.03
2022-09-16T01:24:43.749Z,3.75
2022-09-16T01:27:52.215Z,3.05
2022-09-16T01:30:48.846Z,3.08
2022-09-16T01:33:58.757Z,3.05
2022-09-16T01:36:53.522Z,2.92
2022-09-16T01:39:38.478Z,3.55
2022-09-16T01:42:18.507Z,3.08
2022-09-16T01:45:19.117Z,3.38
2022-09-16T01:47:57.572Z,3.55
2022-09-16T01:50:33.453Z,3.85
2022-09-16T01:53:22.663Z,3.13
2022-09-16T01:55:58.730Z,3.42
2022-09-16T01:58:53.539Z,3.40
2022-09-16T02:01:27.047Z,3.70
2022-09-16T02:04:03.308Z,3.55
2022-09-16T02:06:31.357Z,4.07
2022-09-16T02:09:02.476Z,3.65
2022-09-16T02:11:29.782Z,3.95
2022-09-16T02:14:06.381Z,3.90
2022-09-16T02:16:38.204Z,3.80
2022-09-16T02:19:15.827Z,3.90
2022-09-16T02:21:45.803Z,4.20
2022-09-16T02:24:18.192Z,4.03
2022-09-16T02:26:48.874Z,3.67
2022-09-16T02:29:21.522Z,3.45
2022-09-16T02:31:53.601Z,3.17
2022-09-16T02:34:38.165Z,3.40
2022-09-16T02:37:10.373Z,2.88
2022-09-16T02:39:40.996Z,3.53
2022-09-16T02:42:08.072Z,4.40
2022-09-16T02:44:34.916Z,3.25
2022-09-16T02:47:39.435Z,4.18
2022-09-16T02:50:18.170Z,4.13
2022-09-16T02:53:01.800Z,3.85
2022-09-16T02:56:13.899Z,4.05
2022-09-16T02:58:41.055Z,3.80
2022-09-16T03:01:13.125Z,4.30
2022-09-16T03:03:40.932Z,4.10
2022-09-16T03:06:17.310Z,3.95
2022-09-16T03:08:45.680Z,4.43
2022-09-16T03:11:53.875Z,4.65
2022-09-16T03:14:53.752Z,4.25
2022-09-16T03:18:01.837Z,4.03
2022-09-16T03:21:03.671Z,4.20
2022-09-16T03:24:14.750Z,4.07
2022-09-16T03:27:18.863Z,3.63
2022-09-16T03:30:07.352Z,3.83
2022-09-16T03:32:56.935Z,4.78
2022-09-16T03:35:46.503Z,4.72
2022-09-16T03:38:14.540Z,4.15
2022-09-16T03:40:42.733Z,4.85
2022-09-16T03:43:13.570Z,4.00
2022-09-16T03:45:43.315Z,5.03
2022-09-16T03:48:11.446Z,4.13
2022-09-16T03:50:38.252Z,4.47
2022-09-16T03:53:05.062Z,4.93
2022-09-16T03:55:31.876Z,4.35
2022-09-16T03:57:58.456Z,4.10
2022-09-16T04:00:25.040Z,4.07
2022-09-16T04:02:51.888Z,4.65
2022-09-16T04:05:18.538Z,4.00
2022-09-16T04:07:45.310Z,3.60
2022-09-16T04:10:12.531Z,3.72
2022-09-16T04:12:39.433Z,3.67
2022-09-16T04:15:06.629Z,3.58
2022-09-16T04:17:34.040Z,4.05
2022-09-16T04:20:00.876Z,3.75
2022-09-16T04:22:31.593Z,4.03
2022-09-16T04:24:58.488Z,3.88
2022-09-16T04:27:25.302Z,3.83
2022-09-16T04:29:51.862Z,3.60
2022-09-16T04:32:18.625Z,4.65
2022-09-16T04:34:45.856Z,3.60
2022-09-16T04:37:12.408Z,3.78
2022-09-16T04:39:39.132Z,3.55
2022-09-16T04:42:07.017Z,3.90
2022-09-16T04:44:33.598Z,3.92
2022-09-16T04:47:00.610Z,4.07
2022-09-16T04:49:27.195Z,4.13
2022-09-16T04:51:53.757Z,4.78
2022-09-16T04:54:20.261Z,4.65
2022-09-16T04:56:46.912Z,4.65
2022-09-16T04:59:13.442Z,5.10
2022-09-16T05:01:40.655Z,5.10
2022-09-16T05:04:08.313Z,4.93
2022-09-16T05:06:37.343Z,4.65
2022-09-16T05:09:04.571Z,4.55
2022-09-16T05:11:33.981Z,4.47
2022-09-16T05:14:02.213Z,4.43
2022-09-16T05:16:29.798Z,3.95
2022-09-16T05:18:58.969Z,3.80
2022-09-16T05:21:27.642Z,3.65
2022-09-16T05:23:55.963Z,3.97
2022-09-16T05:26:24.566Z,3.95
2022-09-16T05:28:52.026Z,3.38
2022-09-16T05:31:19.982Z,3.50
2022-09-16T05:34:08.963Z,4.40
2022-09-16T05:36:37.692Z,4.25
2022-09-16T05:39:22.751Z,4.10
2022-09-16T05:41:53.746Z,4.10
2022-09-16T05:44:20.513Z,3.83
2022-09-16T05:46:47.026Z,3.47
2022-09-16T05:49:13.871Z,3.97
2022-09-16T05:51:43.830Z,4.13
2022-09-16T05:54:10.927Z,4.03
2022-09-16T05:56:37.766Z,3.85
2022-09-16T05:59:04.630Z,3.85
2022-09-16T06:01:33.762Z,4.88
2022-09-16T06:04:02.547Z,4.25
2022-09-16T06:06:31.970Z,4.72
2022-09-16T06:09:01.245Z,5.53
2022-09-16T06:11:29.123Z,3.85
2022-09-16T06:14:00.248Z,4.40
2022-09-16T06:16:28.123Z,5.93
2022-09-16T06:18:55.818Z,4.85
2022-09-16T06:21:23.389Z,4.32
2022-09-16T06:23:50.292Z,4.72
2022-09-16T06:26:19.208Z,4.78
2022-09-16T06:28:47.142Z,3.85
2022-09-16T06:31:15.892Z,3.67
2022-09-16T06:33:43.322Z,5.53
2022-09-16T06:36:33.830Z,4.47
2022-09-16T06:39:00.483Z,4.55
2022-09-16T06:41:27.194Z,3.95
2022-09-16T06:43:54.049Z,3.92
2022-09-16T06:46:23.606Z,3.85
2022-09-16T06:48:52.888Z,3.75
2022-09-16T06:51:22.715Z,4.45
2022-09-16T06:53:50.211Z,4.30
2022-09-16T06:56:19.489Z,4.25
2022-09-16T06:58:48.628Z,4.10
2022-09-16T07:01:20.922Z,3.50
2022-09-16T07:06:17.736Z,4.30
2022-09-16T07:08:46.653Z,4.32
2022-09-16T07:11:19.130Z,3.58
2022-09-16T07:13:49.540Z,3.70
2022-09-16T07:16:19.019Z,3.60
2022-09-16T07:18:46.903Z,3.70
2022-09-16T07:21:16.058Z,3.88
2022-09-16T07:23:44.031Z,4.57
2022-09-16T07:26:22.553Z,3.88
2022-09-16T07:28:50.438Z,3.85
2022-09-16T07:31:24.531Z,3.63
2022-09-16T07:33:53.218Z,4.40
2022-09-16T07:36:23.227Z,3.88
2022-09-16T07:38:51.349Z,3.72
2022-09-16T07:41:23.047Z,4.85
2022-09-16T07:43:50.708Z,4.97
2022-09-16T07:46:19.896Z,3.90
2022-09-16T07:48:48.197Z,3.88
2022-09-16T07:51:22.388Z,4.40
2022-09-16T07:53:54.351Z,4.47
2022-09-16T07:56:25.439Z,5.40
2022-09-16T07:58:53.209Z,4.90
2022-09-16T08:01:20.187Z,5.05
2022-09-16T08:03:48.447Z,4.88
2022-09-16T08:06:18.182Z,5.40
2022-09-16T08:08:45.636Z,5.10
2022-09-16T08:11:14.416Z,5.45
2022-09-16T08:13:42.698Z,6.00
2022-09-16T08:16:13.937Z,5.43
2022-09-16T08:18:41.631Z,5.78
2022-09-16T08:21:10.737Z,5.97
2022-09-16T08:23:38.373Z,6.95
2022-09-16T08:26:06.320Z,7.35
2022-09-16T08:28:45.024Z,8.25
2022-09-16T08:31:20.066Z,7.78
2022-09-16T08:33:47.286Z,7.05
2022-09-16T08:36:22.884Z,6.55
2022-09-16T08:38:51.570Z,8.00
2022-09-16T08:41:42.738Z,8.43
2022-09-16T08:44:21.120Z,7.63
2022-09-16T08:46:58.993Z,7.60
2022-09-16T08:49:42.581Z,8.48
2022-09-16T08:52:29.839Z,8.88
2022-09-16T08:55:12.221Z,7.22
2022-09-16T08:57:43.505Z,6.75
2022-09-16T09:00:18.675Z,6.78
2022-09-16T09:02:56.808Z,7.57
2022-09-16T09:05:42.170Z,7.38
2022-09-16T09:08:53.145Z,7.45
2022-09-16T09:11:53.584Z,7.05
2022-09-16T09:14:40.463Z,6.47
2022-09-16T09:17:25.710Z,6.45
2022-09-16T09:20:07.212Z,7.15
2022-09-16T09:23:19.090Z,7.15
2022-09-16T09:25:54.900Z,7.32
2022-09-16T09:28:52.368Z,6.47
2022-09-16T09:31:53.031Z,6.30
2022-09-16T09:34:41.055Z,6.53
2022-09-16T09:37:38.215Z,7.03
2022-09-16T09:40:17.709Z,6.38
2022-09-16T09:42:52.317Z,6.40
2022-09-16T09:45:25.026Z,6.97
2022-09-16T09:48:01.409Z,6.57
2022-09-16T09:50:41.690Z,5.45
2022-09-16T09:53:29.548Z,6.82
2022-09-16T09:56:37.786Z,6.03
2022-09-16T09:59:42.721Z,5.90
2022-09-16T10:02:22.415Z,5.75
2022-09-16T10:04:49.848Z,5.10
2022-09-16T10:07:21.062Z,6.38
2022-09-16T10:10:19.305Z,5.75
2022-09-16T10:12:45.921Z,5.57
2022-09-16T10:15:22.501Z,5.25
2022-09-16T10:17:51.718Z,5.18
2022-09-16T10:20:37.092Z,6.00
2022-09-16T10:23:11.696Z,5.50
2022-09-16T10:25:39.011Z,5.10
2022-09-16T10:28:26.396Z,5.35
2022-09-16T10:30:55.572Z,5.18
2022-09-16T10:33:36.259Z,5.65
2022-09-16T10:36:06.635Z,5.65
2022-09-16T10:38:46.810Z,5.25
2022-09-16T10:41:22.392Z,5.85
2022-09-16T10:43:55.205Z,5.30
2022-09-16T10:46:21.872Z,5.97
2022-09-16T10:48:50.444Z,5.85
2022-09-16T10:51:25.618Z,4.65
2022-09-16T10:53:57.919Z,5.43
2022-09-16T10:59:13.161Z,4.68
2022-09-16T11:02:26.063Z,5.25
2022-09-16T11:05:16.562Z,5.55
2022-09-16T11:07:59.790Z,5.25
2022-09-16T11:11:09.599Z,5.72
2022-09-16T11:13:58.178Z,5.53
2022-09-16T11:17:23.410Z,5.18
2022-09-16T11:20:30.196Z,5.90
2022-09-16T11:23:33.814Z,5.30
2022-09-16T11:26:41.978Z,5.93
2022-09-16T11:29:33.285Z,5.55
2022-09-16T11:32:35.445Z,9.25
2022-09-16T11:54:00.625Z,9.35
2022-09-16T11:56:50.492Z,9.68
2022-09-16T11:59:46.084Z,9.57
2022-09-16T12:02:39.834Z,9.38
2022-09-16T12:05:23.534Z,8.38
2022-09-16T12:08:22.911Z,8.55
2022-09-16T12:11:27.323Z,8.27
2022-09-16T12:14:08.602Z,7.82
2022-09-16T12:16:57.854Z,10.13
2022-09-16T12:19:30.031Z,8.40
2022-09-16T12:22:06.584Z,9.50
2022-09-16T12:24:43.901Z,9.13
2022-09-16T12:27:38.620Z,10.02
2022-09-16T12:30:17.587Z,9.32
2022-09-16T12:33:11.183Z,9.98
2022-09-16T12:35:41.929Z,10.65
2022-09-16T12:38:17.079Z,11.63
2022-09-16T12:41:06.756Z,11.02
2022-09-16T12:44:30.541Z,8.52
2022-09-16T12:47:47.885Z,11.20
2022-09-16T12:51:00.244Z,12.10
2022-09-16T12:53:50.706Z,11.13
2022-09-16T12:56:43.313Z,9.85
2022-09-16T13:00:01.269Z,10.23
2022-09-16T13:02:34.117Z,10.25
2022-09-16T13:05:18.398Z,10.32
2022-09-16T13:07:50.592Z,11.00
2022-09-16T13:10:54.606Z,10.13
2022-09-16T13:13:45.114Z,10.48
2022-09-16T13:16:11.911Z,12.30
2022-09-16T13:18:38.417Z,13.18
2022-09-16T13:21:29.007Z,12.80
2022-09-16T13:24:25.045Z,12.10
2022-09-16T13:26:51.718Z,14.77
2022-09-16T13:29:43.919Z,12.23
2022-09-16T13:32:38.822Z,13.95
2022-09-16T13:35:20.907Z,12.77
2022-09-16T13:37:49.851Z,11.13
2022-09-16T13:40:18.046Z,10.88
2022-09-16T13:42:44.725Z,10.15
2022-09-16T13:45:40.743Z,10.25
2022-09-16T13:48:19.034Z,11.15
2022-09-16T13:50:57.443Z,10.45
2022-09-16T13:53:30.920Z,11.60
2022-09-16T13:56:25.133Z,9.88
2022-09-16T13:59:24.445Z,9.85
2022-09-16T14:02:36.286Z,9.48
2022-09-16T14:05:51.139Z,8.35
2022-09-16T14:08:37.894Z,7.95
2022-09-16T14:11:30.049Z,7.95
2022-09-16T14:14:15.711Z,8.27
2022-09-16T14:16:53.019Z,7.78
2022-09-16T14:19:28.888Z,8.98
2022-09-16T14:22:16.920Z,8.00
2022-09-16T14:24:45.225Z,7.95
2022-09-16T14:27:36.670Z,7.78
2022-09-16T14:30:14.268Z,6.03
2022-09-16T14:32:41.332Z,5.32
2022-09-16T14:35:18.046Z,5.03
2022-09-16T14:37:47.576Z,5.05
2022-09-16T14:40:16.741Z,4.50
2022-09-16T14:42:52.458Z,4.55
2022-09-16T14:45:20.362Z,4.07
2022-09-16T14:47:52.764Z,4.28
2022-09-16T14:50:23.774Z,3.90
2022-09-16T14:52:59.184Z,4.70
2022-09-16T14:55:30.060Z,4.85
2022-09-16T14:57:58.018Z,5.07
2022-09-16T15:00:47.957Z,5.78
2022-09-16T15:03:42.889Z,5.82
2022-09-16T15:06:15.503Z,5.72
2022-09-16T15:08:48.572Z,5.18
2022-09-16T15:11:46.969Z,6.32
2022-09-16T15:14:14.910Z,5.40
2022-09-16T15:16:47.015Z,5.57
2022-09-16T15:19:29.933Z,5.60
2022-09-16T15:21:57.187Z,5.72
2022-09-16T15:24:31.290Z,6.22
2022-09-16T15:26:59.488Z,5.25
2022-09-16T15:29:30.187Z,5.90
2022-09-16T15:32:14.308Z,6.05
2022-09-16T15:34:43.901Z,6.38
2022-09-16T15:37:33.732Z,6.32
2022-09-16T15:40:11.699Z,5.68
2022-09-16T15:42:38.545Z,5.88
2022-09-16T15:45:16.293Z,6.40
2022-09-16T15:47:57.355Z,4.85
2022-09-16T15:50:26.849Z,5.40
2022-09-16T15:53:28.599Z,4.30
2022-09-16T15:56:28.515Z,4.70
2022-09-16T15:59:00.219Z,4.70
2022-09-16T16:02:00.976Z,4.30
2022-09-16T16:04:32.650Z,7.35
2022-09-16T16:07:08.966Z,3.43
2022-09-16T16:09:41.624Z,4.72
2022-09-16T16:12:11.032Z,4.68
2022-09-16T16:14:39.499Z,3.70
2022-09-16T16:17:19.027Z,4.22
2022-09-16T16:19:50.532Z,3.67
2022-09-16T16:22:18.036Z,4.23
2022-09-16T16:24:45.409Z,4.07
2022-09-16T16:27:11.985Z,3.92
2022-09-16T16:29:39.168Z,4.65
2022-09-16T16:32:11.901Z,4.63
2022-09-16T16:34:54.682Z,4.70
2022-09-16T16:37:44.895Z,4.55
2022-09-16T16:40:08.808Z,5.25
2022-09-16T16:42:35.809Z,4.82
2022-09-16T16:45:02.466Z,4.68
2022-09-16T16:47:29.042Z,3.97
2022-09-16T16:49:55.644Z,5.18
2022-09-16T16:52:22.217Z,4.60
2022-09-16T16:54:48.753Z,9.95
2022-09-16T16:57:15.388Z,10.25
2022-09-16T16:59:41.956Z,7.97
2022-09-16T17:02:11.272Z,7.88
2022-09-16T17:04:37.888Z,8.45
2022-09-16T17:09:51.369Z,6.90
2022-09-16T17:12:18.159Z,7.03
2022-09-16T17:14:44.870Z,7.65
2022-09-16T17:17:11.507Z,7.25
2022-09-16T17:19:38.128Z,7.05
2022-09-16T17:22:04.775Z,5.75
2022-09-16T17:24:31.420Z,6.22
2022-09-16T17:26:57.966Z,8.65
2022-09-16T17:29:24.543Z,10.15
2022-09-16T17:31:51.287Z,8.25
2022-09-16T17:34:18.037Z,13.15
2022-09-16T17:36:46.313Z,8.63
2022-09-16T17:39:15.617Z,5.53
2022-09-16T17:41:43.668Z,6.43
2022-09-16T17:44:11.691Z,5.38
2022-09-16T17:46:39.247Z,5.22
2022-09-16T17:49:09.022Z,4.88
2022-09-16T17:51:36.249Z,4.97
2022-09-16T17:54:03.862Z,4.72
2022-09-16T17:56:30.562Z,4.05
2022-09-16T17:58:57.148Z,4.45
2022-09-16T18:01:26.247Z,4.22
2022-09-16T18:03:54.736Z,6.07
2022-09-16T18:06:32.913Z,5.15
2022-09-16T18:09:00.941Z,5.45
2022-09-16T18:11:27.923Z,4.35
2022-09-16T18:13:56.503Z,5.63
2022-09-16T18:16:24.008Z,7.65
2022-09-16T18:18:53.073Z,6.63
2022-09-16T18:21:21.018Z,7.18
2022-09-16T18:23:49.703Z,5.88
2022-09-16T18:26:16.836Z,5.18
2022-09-16T18:29:08.502Z,4.60
2022-09-16T18:31:32.817Z,3.78
2022-09-16T18:33:59.576Z,4.07
2022-09-16T18:36:28.516Z,4.78
2022-09-16T18:38:59.578Z,3.97
2022-09-16T18:41:31.709Z,3.95
2022-09-16T18:44:00.898Z,3.95
2022-09-16T18:46:34.677Z,3.80
2022-09-16T18:49:01.737Z,3.72
2022-09-16T18:51:30.894Z,4.03
2022-09-16T18:54:02.164Z,3.55
2022-09-16T18:56:32.034Z,4.00
2022-09-16T18:59:21.060Z,4.03
2022-09-16T19:01:48.943Z,4.10
2022-09-16T19:04:18.574Z,3.63
2022-09-16T19:06:48.543Z,3.67
2022-09-16T19:09:17.714Z,3.95
2022-09-16T19:11:44.518Z,4.15
2022-09-16T19:14:15.842Z,3.58
2022-09-16T19:16:44.746Z,3.42
2022-09-16T19:19:14.058Z,3.95
2022-09-16T19:21:42.135Z,4.00
2022-09-16T19:24:14.091Z,3.78
2022-09-16T19:26:42.196Z,3.80
2022-09-16T19:29:09.820Z,3.30
2022-09-16T19:31:40.201Z,4.15
2022-09-16T19:34:07.768Z,4.47
2022-09-16T19:36:35.405Z,5.00
2022-09-16T19:39:03.376Z,5.03
2022-09-16T19:41:32.171Z,4.20
2022-09-16T19:44:01.368Z,5.68
2022-09-16T19:46:29.526Z,4.88
2022-09-16T19:48:56.800Z,5.22
2022-09-16T19:51:24.622Z,4.65
2022-09-16T19:53:53.149Z,5.13
2022-09-16T19:56:28.814Z,3.90
2022-09-16T19:58:55.656Z,4.13
2022-09-16T20:01:27.365Z,3.80
2022-09-16T20:03:54.977Z,4.32
2022-09-16T20:06:24.046Z,4.45
2022-09-16T20:08:58.783Z,4.03
2022-09-16T20:11:31.527Z,3.88
2022-09-16T20:14:08.244Z,3.55
2022-09-16T20:16:37.788Z,4.15
2022-09-16T20:19:06.312Z,3.60
2022-09-16T20:21:35.154Z,3.63
2022-09-16T20:24:05.737Z,3.58
2022-09-16T20:26:33.026Z,4.10
2022-09-16T20:29:00.351Z,3.78
2022-09-16T20:31:31.373Z,3.70
2022-09-16T20:33:58.620Z,3.60
2022-09-16T20:36:30.474Z,3.15
2022-09-16T20:38:59.700Z,3.97
2022-09-16T20:41:28.940Z,4.25
2022-09-16T20:43:55.628Z,4.15
2022-09-16T20:46:26.414Z,4.15
2022-09-16T20:48:57.492Z,4.15
2022-09-16T20:51:27.086Z,3.40
2022-09-16T20:54:00.840Z,5.45
2022-09-16T20:56:37.455Z,4.18
2022-09-16T20:59:07.473Z,4.00
2022-09-16T21:01:34.996Z,4.30
2022-09-16T21:04:05.213Z,4.60
2022-09-16T21:06:34.649Z,3.80
2022-09-16T21:09:05.302Z,3.45
2022-09-16T21:11:32.394Z,4.00
2022-09-16T21:14:06.959Z,3.22
2022-09-16T21:16:36.012Z,3.15
2022-09-16T21:19:05.167Z,3.42
2022-09-16T21:21:32.143Z,3.13
2022-09-16T21:24:01.317Z,2.85
2022-09-16T21:26:31.047Z,3.22
2022-09-16T21:29:03.305Z,2.58
2022-09-16T21:31:33.543Z,3.00
2022-09-16T21:34:03.042Z,2.53
2022-09-16T21:36:30.359Z,3.08
2022-09-16T21:38:57.633Z,3.00
2022-09-16T21:41:25.295Z,3.00
2022-09-16T21:43:55.631Z,2.53
2022-09-16T21:46:25.874Z,3.00
2022-09-16T21:48:56.288Z,2.60
2022-09-16T21:51:23.523Z,2.65
2022-09-16T21:53:50.264Z,2.47
2022-09-16T21:56:21.921Z,2.90
2022-09-16T21:58:50.130Z,2.80
2022-09-16T22:01:28.302Z,2.42
2022-09-16T22:03:57.344Z,2.67
2022-09-16T22:06:25.635Z,2.70
2022-09-16T22:08:55.932Z,2.72
2022-09-16T22:11:24.612Z,2.72
2022-09-16T22:13:51.526Z,2.53
2022-09-16T22:16:26.910Z,2.70
2022-09-16T22:19:01.731Z,2.65
2022-09-16T22:21:31.069Z,2.75
2022-09-16T22:23:59.596Z,2.33
2022-09-16T22:26:27.155Z,2.92
2022-09-16T22:28:54.203Z,2.95
2022-09-16T22:31:27.347Z,2.97
2022-09-16T22:33:55.554Z,2.47
2022-09-16T22:36:26.921Z,3.60
2022-09-16T22:38:55.815Z,2.67
2022-09-16T22:41:24.145Z,2.97
2022-09-16T22:43:51.979Z,2.75
2022-09-16T22:46:21.189Z,3.10
2022-09-16T22:48:49.038Z,2.78
2022-09-16T22:51:17.271Z,3.20
2022-09-16T22:53:45.029Z,2.72
2022-09-16T22:56:14.545Z,3.03
2022-09-16T22:58:43.870Z,2.97
2022-09-16T23:01:16.725Z,2.72
2022-09-16T23:03:44.684Z,3.20
2022-09-16T23:06:14.000Z,3.55
2022-09-16T23:08:45.286Z,3.17
2022-09-16T23:11:14.636Z,3.22
2022-09-16T23:13:42.714Z,3.72
2022-09-16T23:16:15.978Z,3.30
2022-09-16T23:18:43.905Z,2.80
2022-09-16T23:21:12.669Z,3.47
2022-09-16T23:23:42.302Z,3.15
2022-09-16T23:26:12.424Z,2.83
2022-09-16T23:28:39.440Z,3.05
2022-09-16T23:31:17.494Z,3.15
2022-09-16T23:33:44.911Z,3.10
2022-09-16T23:36:14.025Z,2.90
2022-09-16T23:38:41.950Z,2.35
2022-09-16T23:41:13.928Z,3.03
2022-09-16T23:43:41.903Z,2.83
2022-09-16T23:46:09.609Z,2.75
2022-09-16T23:48:36.979Z,2.92
2022-09-16T23:51:05.046Z,2.85
2022-09-16T23:53:32.066Z,3.53
2022-09-16T23:55:58.726Z,2.80
2022-09-16T23:58:25.377Z,3.40
